sensor_id;sensor_type;location;lat;lon;timestamp;P1;durP1;ratioP1;P2;durP2;ratioP2
4806;SDS011;2417;52.482;13.432;2023-08-21T00:02:18;22.63;;;15.40;;
4806;SDS011;2417;52.482;13.432;2023-08-21T00:04:45;24.17;;;14.70;;
4806;SDS011;2417;52.482;13.432;2023-08-21T00:07:13;21.43;;;14.57;;
4806;SDS011;2417;52.482;13.432;2023-08-21T00:09:41;23.13;;;15.07;;
4806;SDS011;2417;52.482;13.432;2023-08-21T00:12:09;21.80;;;14.40;;
4806;SDS011;2417;52.482;13.432;2023-08-21T00:14:36;28.30;;;16.70;;
4806;SDS011;2417;52.482;13.432;2023-08-21T00:17:06;25.00;;;15.53;;
4806;SDS011;2417;52.482;13.432;2023-08-21T00:19:34;23.90;;;15.83;;
4806;SDS011;2417;52.482;13.432;2023-08-21T00:22:02;26.87;;;16.00;;
4806;SDS011;2417;52.482;13.432;2023-08-21T00:24:30;21.30;;;14.77;;
4806;SDS011;2417;52.482;13.432;2023-08-21T00:26:59;32.03;;;16.87;;
4806;SDS011;2417;52.482;13.432;2023-08-21T00:29:27;22.57;;;15.93;;
4806;SDS011;2417;52.482;13.432;2023-08-21T00:31:55;24.00;;;16.73;;
4806;SDS011;2417;52.482;13.432;2023-08-21T00:34:24;26.43;;;16.20;;
4806;SDS011;2417;52.482;13.432;2023-08-21T00:36:53;26.73;;;17.47;;
4806;SDS011;2417;52.482;13.432;2023-08-21T00:39:21;24.63;;;16.20;;
4806;SDS011;2417;52.482;13.432;2023-08-21T00:41:49;29.73;;;16.57;;
4806;SDS011;2417;52.482;13.432;2023-08-21T00:44:17;24.60;;;16.67;;
4806;SDS011;2417;52.482;13.432;2023-08-21T00:46:45;23.53;;;15.87;;
4806;SDS011;2417;52.482;13.432;2023-08-21T00:49:15;23.23;;;16.17;;
4806;SDS011;2417;52.482;13.432;2023-08-21T00:51:44;32.00;;;16.70;;
4806;SDS011;2417;52.482;13.432;2023-08-21T00:54:13;22.73;;;16.00;;
4806;SDS011;2417;52.482;13.432;2023-08-21T00:56:40;24.70;;;17.23;;
4806;SDS011;2417;52.482;13.432;2023-08-21T00:59:09;28.20;;;15.77;;
4806;SDS011;2417;52.482;13.432;2023-08-21T01:01:37;23.97;;;16.63;;
4806;SDS011;2417;52.482;13.432;2023-08-21T01:04:04;27.33;;;16.30;;
4806;SDS011;2417;52.482;13.432;2023-08-21T01:06:33;34.43;;;16.67;;
4806;SDS011;2417;52.482;13.432;2023-08-21T01:09:03;24.33;;;16.50;;
4806;SDS011;2417;52.482;13.432;2023-08-21T01:11:35;26.00;;;16.27;;
4806;SDS011;2417;52.482;13.432;2023-08-21T01:14:06;28.27;;;15.83;;
4806;SDS011;2417;52.482;13.432;2023-08-21T01:16:39;22.77;;;15.40;;
4806;SDS011;2417;52.482;13.432;2023-08-21T01:19:09;27.10;;;15.10;;
4806;SDS011;2417;52.482;13.432;2023-08-21T01:21:37;22.73;;;15.60;;
4806;SDS011;2417;52.482;13.432;2023-08-21T01:24:07;26.20;;;15.80;;
4806;SDS011;2417;52.482;13.432;2023-08-21T01:26:35;22.00;;;15.00;;
4806;SDS011;2417;52.482;13.432;2023-08-21T01:29:02;23.07;;;14.83;;
4806;SDS011;2417;52.482;13.432;2023-08-21T01:31:31;22.03;;;14.57;;
4806;SDS011;2417;52.482;13.432;2023-08-21T01:34:01;25.20;;;15.30;;
4806;SDS011;2417;52.482;13.432;2023-08-21T01:36:31;24.20;;;14.77;;
4806;SDS011;2417;52.482;13.432;2023-08-21T01:38:59;24.63;;;15.77;;
4806;SDS011;2417;52.482;13.432;2023-08-21T01:41:28;22.73;;;15.17;;
4806;SDS011;2417;52.482;13.432;2023-08-21T01:43:56;21.47;;;14.30;;
4806;SDS011;2417;52.482;13.432;2023-08-21T01:46:24;25.20;;;15.50;;
4806;SDS011;2417;52.482;13.432;2023-08-21T01:48:52;22.93;;;14.40;;
4806;SDS011;2417;52.482;13.432;2023-08-21T01:51:20;23.83;;;14.87;;
4806;SDS011;2417;52.482;13.432;2023-08-21T01:53:48;22.27;;;15.00;;
4806;SDS011;2417;52.482;13.432;2023-08-21T01:56:16;23.17;;;15.50;;
4806;SDS011;2417;52.482;13.432;2023-08-21T01:58:45;27.90;;;15.63;;
4806;SDS011;2417;52.482;13.432;2023-08-21T02:01:13;19.70;;;14.63;;
4806;SDS011;2417;52.482;13.432;2023-08-21T02:03:41;21.27;;;14.70;;
4806;SDS011;2417;52.482;13.432;2023-08-21T02:06:09;22.00;;;15.60;;
4806;SDS011;2417;52.482;13.432;2023-08-21T02:08:38;22.70;;;14.77;;
4806;SDS011;2417;52.482;13.432;2023-08-21T02:11:06;19.50;;;14.20;;
4806;SDS011;2417;52.482;13.432;2023-08-21T02:13:34;19.07;;;13.57;;
4806;SDS011;2417;52.482;13.432;2023-08-21T02:16:03;20.20;;;13.73;;
4806;SDS011;2417;52.482;13.432;2023-08-21T02:18:31;20.03;;;14.00;;
4806;SDS011;2417;52.482;13.432;2023-08-21T02:21:00;22.00;;;14.00;;
4806;SDS011;2417;52.482;13.432;2023-08-21T02:23:28;21.40;;;13.87;;
4806;SDS011;2417;52.482;13.432;2023-08-21T02:25:56;20.77;;;13.03;;
4806;SDS011;2417;52.482;13.432;2023-08-21T02:28:24;20.63;;;13.30;;
4806;SDS011;2417;52.482;13.432;2023-08-21T02:30:52;22.50;;;13.50;;
4806;SDS011;2417;52.482;13.432;2023-08-21T02:33:21;24.50;;;13.33;;
4806;SDS011;2417;52.482;13.432;2023-08-21T02:35:49;22.07;;;14.00;;
4806;SDS011;2417;52.482;13.432;2023-08-21T02:38:17;19.17;;;12.93;;
4806;SDS011;2417;52.482;13.432;2023-08-21T02:40:46;19.77;;;13.00;;
4806;SDS011;2417;52.482;13.432;2023-08-21T02:43:14;17.93;;;12.97;;
4806;SDS011;2417;52.482;13.432;2023-08-21T02:45:43;23.23;;;13.53;;
4806;SDS011;2417;52.482;13.432;2023-08-21T02:48:11;23.93;;;13.20;;
4806;SDS011;2417;52.482;13.432;2023-08-21T02:50:40;21.27;;;13.13;;
4806;SDS011;2417;52.482;13.432;2023-08-21T02:53:09;18.50;;;12.60;;
4806;SDS011;2417;52.482;13.432;2023-08-21T02:55:37;26.63;;;12.67;;
4806;SDS011;2417;52.482;13.432;2023-08-21T02:58:05;21.00;;;13.23;;
4806;SDS011;2417;52.482;13.432;2023-08-21T03:00:34;20.73;;;12.40;;
4806;SDS011;2417;52.482;13.432;2023-08-21T03:03:02;18.70;;;12.13;;
4806;SDS011;2417;52.482;13.432;2023-08-21T03:05:31;15.87;;;12.03;;
4806;SDS011;2417;52.482;13.432;2023-08-21T03:08:00;25.57;;;13.07;;
4806;SDS011;2417;52.482;13.432;2023-08-21T03:10:28;18.70;;;12.33;;
4806;SDS011;2417;52.482;13.432;2023-08-21T03:13:00;19.50;;;12.30;;
4806;SDS011;2417;52.482;13.432;2023-08-21T03:15:28;18.57;;;12.03;;
4806;SDS011;2417;52.482;13.432;2023-08-21T03:17:56;15.50;;;10.90;;
4806;SDS011;2417;52.482;13.432;2023-08-21T03:20:24;17.07;;;11.37;;
4806;SDS011;2417;52.482;13.432;2023-08-21T03:22:52;23.30;;;12.17;;
4806;SDS011;2417;52.482;13.432;2023-08-21T03:25:23;16.27;;;11.60;;
4806;SDS011;2417;52.482;13.432;2023-08-21T03:27:51;19.43;;;11.80;;
4806;SDS011;2417;52.482;13.432;2023-08-21T03:30:19;19.80;;;12.40;;
4806;SDS011;2417;52.482;13.432;2023-08-21T03:32:48;17.13;;;11.23;;
4806;SDS011;2417;52.482;13.432;2023-08-21T03:35:16;16.80;;;11.07;;
4806;SDS011;2417;52.482;13.432;2023-08-21T03:38:06;26.50;;;11.83;;
4806;SDS011;2417;52.482;13.432;2023-08-21T03:40:43;17.73;;;11.90;;
4806;SDS011;2417;52.482;13.432;2023-08-21T03:43:11;17.87;;;11.03;;
4806;SDS011;2417;52.482;13.432;2023-08-21T03:45:40;19.40;;;11.10;;
4806;SDS011;2417;52.482;13.432;2023-08-21T03:48:08;19.00;;;10.67;;
4806;SDS011;2417;52.482;13.432;2023-08-21T03:50:36;20.30;;;11.10;;
4806;SDS011;2417;52.482;13.432;2023-08-21T03:53:04;19.20;;;11.80;;
4806;SDS011;2417;52.482;13.432;2023-08-21T03:55:32;16.60;;;10.87;;
4806;SDS011;2417;52.482;13.432;2023-08-21T03:58:01;21.73;;;11.57;;
4806;SDS011;2417;52.482;13.432;2023-08-21T04:00:29;19.53;;;10.50;;
4806;SDS011;2417;52.482;13.432;2023-08-21T04:02:57;16.57;;;10.60;;
4806;SDS011;2417;52.482;13.432;2023-08-21T04:05:26;18.23;;;10.43;;
4806;SDS011;2417;52.482;13.432;2023-08-21T04:07:55;20.73;;;10.70;;
4806;SDS011;2417;52.482;13.432;2023-08-21T04:10:23;17.07;;;10.73;;
4806;SDS011;2417;52.482;13.432;2023-08-21T04:12:51;26.47;;;10.87;;
4806;SDS011;2417;52.482;13.432;2023-08-21T04:15:21;16.30;;;10.83;;
4806;SDS011;2417;52.482;13.432;2023-08-21T04:17:49;17.23;;;11.10;;
4806;SDS011;2417;52.482;13.432;2023-08-21T04:20:17;17.93;;;10.97;;
4806;SDS011;2417;52.482;13.432;2023-08-21T04:22:45;16.17;;;10.63;;
4806;SDS011;2417;52.482;13.432;2023-08-21T04:25:13;14.43;;;10.30;;
4806;SDS011;2417;52.482;13.432;2023-08-21T04:27:41;19.57;;;11.13;;
4806;SDS011;2417;52.482;13.432;2023-08-21T04:30:10;16.73;;;10.90;;
4806;SDS011;2417;52.482;13.432;2023-08-21T04:32:39;17.40;;;10.50;;
4806;SDS011;2417;52.482;13.432;2023-08-21T04:35:08;15.60;;;10.50;;
4806;SDS011;2417;52.482;13.432;2023-08-21T04:37:37;16.90;;;11.33;;
4806;SDS011;2417;52.482;13.432;2023-08-21T04:40:06;15.53;;;11.37;;
4806;SDS011;2417;52.482;13.432;2023-08-21T04:42:34;21.00;;;11.07;;
4806;SDS011;2417;52.482;13.432;2023-08-21T04:45:03;13.80;;;10.53;;
4806;SDS011;2417;52.482;13.432;2023-08-21T04:47:34;17.23;;;11.20;;
4806;SDS011;2417;52.482;13.432;2023-08-21T04:50:04;16.67;;;11.30;;
4806;SDS011;2417;52.482;13.432;2023-08-21T04:52:32;20.33;;;11.87;;
4806;SDS011;2417;52.482;13.432;2023-08-21T04:55:00;18.40;;;11.57;;
4806;SDS011;2417;52.482;13.432;2023-08-21T04:57:32;22.93;;;11.80;;
4806;SDS011;2417;52.482;13.432;2023-08-21T05:00:03;25.80;;;11.63;;
4806;SDS011;2417;52.482;13.432;2023-08-21T05:02:37;19.33;;;13.00;;
4806;SDS011;2417;52.482;13.432;2023-08-21T05:05:07;16.67;;;11.20;;
4806;SDS011;2417;52.482;13.432;2023-08-21T05:07:37;16.73;;;12.17;;
4806;SDS011;2417;52.482;13.432;2023-08-21T05:10:05;18.93;;;11.47;;
4806;SDS011;2417;52.482;13.432;2023-08-21T05:12:34;17.40;;;11.80;;
4806;SDS011;2417;52.482;13.432;2023-08-21T05:15:03;27.30;;;11.97;;
4806;SDS011;2417;52.482;13.432;2023-08-21T05:17:31;14.97;;;11.50;;
4806;SDS011;2417;52.482;13.432;2023-08-21T05:19:59;15.97;;;11.50;;
4806;SDS011;2417;52.482;13.432;2023-08-21T05:22:29;17.73;;;12.50;;
4806;SDS011;2417;52.482;13.432;2023-08-21T05:24:57;17.67;;;11.77;;
4806;SDS011;2417;52.482;13.432;2023-08-21T05:27:25;21.20;;;12.77;;
4806;SDS011;2417;52.482;13.432;2023-08-21T05:29:53;19.10;;;11.77;;
4806;SDS011;2417;52.482;13.432;2023-08-21T05:32:20;17.23;;;11.67;;
4806;SDS011;2417;52.482;13.432;2023-08-21T05:34:49;16.60;;;11.40;;
4806;SDS011;2417;52.482;13.432;2023-08-21T05:37:17;16.80;;;11.03;;
4806;SDS011;2417;52.482;13.432;2023-08-21T05:39:46;20.27;;;11.07;;
4806;SDS011;2417;52.482;13.432;2023-08-21T05:42:16;20.80;;;11.87;;
4806;SDS011;2417;52.482;13.432;2023-08-21T05:44:44;14.93;;;10.57;;
4806;SDS011;2417;52.482;13.432;2023-08-21T05:47:12;14.37;;;10.53;;
4806;SDS011;2417;52.482;13.432;2023-08-21T05:49:40;18.33;;;11.80;;
4806;SDS011;2417;52.482;13.432;2023-08-21T05:52:08;18.87;;;11.20;;
4806;SDS011;2417;52.482;13.432;2023-08-21T05:54:36;17.40;;;10.90;;
4806;SDS011;2417;52.482;13.432;2023-08-21T05:57:06;17.40;;;10.80;;
4806;SDS011;2417;52.482;13.432;2023-08-21T05:59:34;18.03;;;11.10;;
4806;SDS011;2417;52.482;13.432;2023-08-21T06:02:02;20.13;;;11.03;;
4806;SDS011;2417;52.482;13.432;2023-08-21T06:04:31;15.10;;;10.23;;
4806;SDS011;2417;52.482;13.432;2023-08-21T06:07:01;23.70;;;11.00;;
4806;SDS011;2417;52.482;13.432;2023-08-21T06:09:29;16.40;;;10.73;;
4806;SDS011;2417;52.482;13.432;2023-08-21T06:11:58;17.60;;;10.90;;
4806;SDS011;2417;52.482;13.432;2023-08-21T06:14:27;16.07;;;10.40;;
4806;SDS011;2417;52.482;13.432;2023-08-21T06:17:00;15.80;;;9.90;;
4806;SDS011;2417;52.482;13.432;2023-08-21T06:19:29;13.17;;;9.13;;
4806;SDS011;2417;52.482;13.432;2023-08-21T06:21:57;15.50;;;10.03;;
4806;SDS011;2417;52.482;13.432;2023-08-21T06:24:25;14.10;;;9.57;;
4806;SDS011;2417;52.482;13.432;2023-08-21T06:26:57;17.40;;;10.17;;
4806;SDS011;2417;52.482;13.432;2023-08-21T06:29:26;14.80;;;9.33;;
4806;SDS011;2417;52.482;13.432;2023-08-21T06:31:56;15.37;;;9.50;;
4806;SDS011;2417;52.482;13.432;2023-08-21T06:34:24;16.10;;;8.53;;
4806;SDS011;2417;52.482;13.432;2023-08-21T06:36:52;15.60;;;8.60;;
4806;SDS011;2417;52.482;13.432;2023-08-21T06:39:21;39.57;;;10.33;;
4806;SDS011;2417;52.482;13.432;2023-08-21T06:41:49;14.80;;;9.37;;
4806;SDS011;2417;52.482;13.432;2023-08-21T06:44:18;20.13;;;9.47;;
4806;SDS011;2417;52.482;13.432;2023-08-21T06:46:46;15.53;;;9.17;;
4806;SDS011;2417;52.482;13.432;2023-08-21T06:49:16;16.60;;;9.70;;
4806;SDS011;2417;52.482;13.432;2023-08-21T06:51:44;15.23;;;10.97;;
4806;SDS011;2417;52.482;13.432;2023-08-21T06:54:12;16.23;;;8.90;;
4806;SDS011;2417;52.482;13.432;2023-08-21T06:56:40;16.40;;;9.43;;
4806;SDS011;2417;52.482;13.432;2023-08-21T06:59:08;15.03;;;8.23;;
4806;SDS011;2417;52.482;13.432;2023-08-21T07:01:36;13.07;;;8.40;;
4806;SDS011;2417;52.482;13.432;2023-08-21T07:04:03;13.40;;;7.80;;
4806;SDS011;2417;52.482;13.432;2023-08-21T07:06:33;14.80;;;7.70;;
4806;SDS011;2417;52.482;13.432;2023-08-21T07:09:01;13.27;;;7.17;;
4806;SDS011;2417;52.482;13.432;2023-08-21T07:11:30;12.60;;;7.50;;
4806;SDS011;2417;52.482;13.432;2023-08-21T07:13:58;11.33;;;7.07;;
4806;SDS011;2417;52.482;13.432;2023-08-21T07:16:26;13.93;;;8.00;;
4806;SDS011;2417;52.482;13.432;2023-08-21T07:18:54;10.20;;;7.20;;
4806;SDS011;2417;52.482;13.432;2023-08-21T07:21:22;9.90;;;7.57;;
4806;SDS011;2417;52.482;13.432;2023-08-21T07:24:01;19.10;;;8.07;;
4806;SDS011;2417;52.482;13.432;2023-08-21T07:26:33;15.37;;;7.40;;
4806;SDS011;2417;52.482;13.432;2023-08-21T07:29:01;10.20;;;7.23;;
4806;SDS011;2417;52.482;13.432;2023-08-21T07:31:31;16.53;;;7.83;;
4806;SDS011;2417;52.482;13.432;2023-08-21T07:33:59;16.77;;;6.87;;
4806;SDS011;2417;52.482;13.432;2023-08-21T07:36:27;11.20;;;6.60;;
4806;SDS011;2417;52.482;13.432;2023-08-21T07:38:55;11.50;;;6.20;;
4806;SDS011;2417;52.482;13.432;2023-08-21T07:41:24;13.20;;;6.43;;
4806;SDS011;2417;52.482;13.432;2023-08-21T07:43:53;10.70;;;5.60;;
4806;SDS011;2417;52.482;13.432;2023-08-21T07:46:21;9.37;;;5.50;;
4806;SDS011;2417;52.482;13.432;2023-08-21T07:48:49;10.03;;;5.70;;
4806;SDS011;2417;52.482;13.432;2023-08-21T07:51:17;9.40;;;5.47;;
4806;SDS011;2417;52.482;13.432;2023-08-21T07:53:45;9.40;;;4.97;;
4806;SDS011;2417;52.482;13.432;2023-08-21T07:56:13;11.73;;;4.40;;
4806;SDS011;2417;52.482;13.432;2023-08-21T07:58:42;11.10;;;4.70;;
4806;SDS011;2417;52.482;13.432;2023-08-21T08:01:10;10.30;;;4.63;;
4806;SDS011;2417;52.482;13.432;2023-08-21T08:03:38;13.83;;;4.40;;
4806;SDS011;2417;52.482;13.432;2023-08-21T08:06:06;10.00;;;4.80;;
4806;SDS011;2417;52.482;13.432;2023-08-21T08:08:34;8.37;;;4.80;;
4806;SDS011;2417;52.482;13.432;2023-08-21T08:11:01;5.80;;;4.27;;
4806;SDS011;2417;52.482;13.432;2023-08-21T08:13:30;7.37;;;3.90;;
4806;SDS011;2417;52.482;13.432;2023-08-21T08:16:00;6.73;;;3.60;;
4806;SDS011;2417;52.482;13.432;2023-08-21T08:18:28;7.47;;;4.00;;
4806;SDS011;2417;52.482;13.432;2023-08-21T08:20:56;9.30;;;4.00;;
4806;SDS011;2417;52.482;13.432;2023-08-21T08:23:24;18.70;;;3.90;;
4806;SDS011;2417;52.482;13.432;2023-08-21T08:25:51;12.00;;;3.30;;
4806;SDS011;2417;52.482;13.432;2023-08-21T08:28:20;10.53;;;3.80;;
4806;SDS011;2417;52.482;13.432;2023-08-21T08:30:47;9.87;;;3.43;;
4806;SDS011;2417;52.482;13.432;2023-08-21T08:33:17;11.70;;;3.33;;
4806;SDS011;2417;52.482;13.432;2023-08-21T08:35:45;8.37;;;3.30;;
4806;SDS011;2417;52.482;13.432;2023-08-21T08:38:13;8.73;;;3.80;;
4806;SDS011;2417;52.482;13.432;2023-08-21T08:40:43;7.70;;;3.87;;
4806;SDS011;2417;52.482;13.432;2023-08-21T08:43:12;12.00;;;4.30;;
4806;SDS011;2417;52.482;13.432;2023-08-21T08:45:40;13.93;;;4.00;;
4806;SDS011;2417;52.482;13.432;2023-08-21T08:48:09;11.33;;;4.53;;
4806;SDS011;2417;52.482;13.432;2023-08-21T08:50:39;7.07;;;4.27;;
4806;SDS011;2417;52.482;13.432;2023-08-21T08:53:08;8.87;;;4.37;;
4806;SDS011;2417;52.482;13.432;2023-08-21T08:55:43;8.03;;;4.20;;
4806;SDS011;2417;52.482;13.432;2023-08-21T08:58:12;7.33;;;3.53;;
4806;SDS011;2417;52.482;13.432;2023-08-21T09:00:40;5.97;;;2.90;;
4806;SDS011;2417;52.482;13.432;2023-08-21T09:03:08;7.00;;;3.33;;
4806;SDS011;2417;52.482;13.432;2023-08-21T09:05:38;6.53;;;3.20;;
4806;SDS011;2417;52.482;13.432;2023-08-21T09:08:10;4.80;;;2.90;;
4806;SDS011;2417;52.482;13.432;2023-08-21T09:10:38;6.60;;;2.40;;
4806;SDS011;2417;52.482;13.432;2023-08-21T09:13:13;4.67;;;2.10;;
4806;SDS011;2417;52.482;13.432;2023-08-21T09:15:41;6.60;;;2.00;;
4806;SDS011;2417;52.482;13.432;2023-08-21T09:18:10;6.43;;;2.30;;
4806;SDS011;2417;52.482;13.432;2023-08-21T09:20:39;5.63;;;1.90;;
4806;SDS011;2417;52.482;13.432;2023-08-21T09:23:08;4.70;;;1.80;;
4806;SDS011;2417;52.482;13.432;2023-08-21T09:25:36;3.20;;;1.30;;
4806;SDS011;2417;52.482;13.432;2023-08-21T09:28:06;4.00;;;1.27;;
4806;SDS011;2417;52.482;13.432;2023-08-21T09:30:47;3.87;;;1.40;;
4806;SDS011;2417;52.482;13.432;2023-08-21T09:33:18;1.83;;;1.00;;
4806;SDS011;2417;52.482;13.432;2023-08-21T09:35:49;9.10;;;1.67;;
4806;SDS011;2417;52.482;13.432;2023-08-21T09:38:18;3.33;;;1.17;;
4806;SDS011;2417;52.482;13.432;2023-08-21T09:40:49;3.27;;;1.43;;
4806;SDS011;2417;52.482;13.432;2023-08-21T09:43:18;3.10;;;1.40;;
4806;SDS011;2417;52.482;13.432;2023-08-21T09:45:46;4.43;;;1.30;;
4806;SDS011;2417;52.482;13.432;2023-08-21T09:48:14;3.80;;;1.30;;
4806;SDS011;2417;52.482;13.432;2023-08-21T09:50:43;5.57;;;1.10;;
4806;SDS011;2417;52.482;13.432;2023-08-21T09:53:14;2.90;;;1.67;;
4806;SDS011;2417;52.482;13.432;2023-08-21T09:56:00;2.50;;;1.40;;
4806;SDS011;2417;52.482;13.432;2023-08-21T09:58:30;3.50;;;1.43;;
4806;SDS011;2417;52.482;13.432;2023-08-21T10:00:58;2.43;;;1.40;;
4806;SDS011;2417;52.482;13.432;2023-08-21T10:03:26;3.23;;;1.30;;
4806;SDS011;2417;52.482;13.432;2023-08-21T10:05:56;4.00;;;1.93;;
4806;SDS011;2417;52.482;13.432;2023-08-21T10:08:26;5.13;;;2.00;;
4806;SDS011;2417;52.482;13.432;2023-08-21T10:10:55;3.53;;;1.40;;
4806;SDS011;2417;52.482;13.432;2023-08-21T10:13:23;5.47;;;1.63;;
4806;SDS011;2417;52.482;13.432;2023-08-21T10:15:51;4.67;;;1.63;;
4806;SDS011;2417;52.482;13.432;2023-08-21T10:18:21;2.30;;;1.30;;
4806;SDS011;2417;52.482;13.432;2023-08-21T10:20:50;3.10;;;1.30;;
4806;SDS011;2417;52.482;13.432;2023-08-21T10:23:25;3.07;;;1.27;;
4806;SDS011;2417;52.482;13.432;2023-08-21T10:25:57;3.20;;;1.60;;
4806;SDS011;2417;52.482;13.432;2023-08-21T10:31:27;3.37;;;1.67;;
4806;SDS011;2417;52.482;13.432;2023-08-21T10:33:55;5.17;;;2.00;;
4806;SDS011;2417;52.482;13.432;2023-08-21T10:36:39;5.27;;;1.63;;
4806;SDS011;2417;52.482;13.432;2023-08-21T10:39:13;6.97;;;4.33;;
4806;SDS011;2417;52.482;13.432;2023-08-21T10:41:49;5.57;;;2.17;;
4806;SDS011;2417;52.482;13.432;2023-08-21T10:44:33;6.30;;;2.10;;
4806;SDS011;2417;52.482;13.432;2023-08-21T10:47:12;4.33;;;2.00;;
4806;SDS011;2417;52.482;13.432;2023-08-21T10:49:43;3.20;;;1.60;;
4806;SDS011;2417;52.482;13.432;2023-08-21T10:52:11;4.13;;;1.63;;
4806;SDS011;2417;52.482;13.432;2023-08-21T10:54:44;1.97;;;1.10;;
4806;SDS011;2417;52.482;13.432;2023-08-21T10:57:14;6.13;;;1.43;;
4806;SDS011;2417;52.482;13.432;2023-08-21T10:59:49;5.00;;;2.00;;
4806;SDS011;2417;52.482;13.432;2023-08-21T11:02:18;3.30;;;1.50;;
4806;SDS011;2417;52.482;13.432;2023-08-21T11:04:46;2.77;;;1.27;;
4806;SDS011;2417;52.482;13.432;2023-08-21T11:07:14;4.50;;;1.30;;
4806;SDS011;2417;52.482;13.432;2023-08-21T11:09:42;2.97;;;1.30;;
4806;SDS011;2417;52.482;13.432;2023-08-21T11:12:10;3.60;;;1.40;;
4806;SDS011;2417;52.482;13.432;2023-08-21T11:14:40;6.60;;;1.70;;
4806;SDS011;2417;52.482;13.432;2023-08-21T11:17:08;4.20;;;1.40;;
4806;SDS011;2417;52.482;13.432;2023-08-21T11:19:37;7.80;;;2.20;;
4806;SDS011;2417;52.482;13.432;2023-08-21T11:22:05;4.77;;;1.50;;
4806;SDS011;2417;52.482;13.432;2023-08-21T11:24:43;6.20;;;1.77;;
4806;SDS011;2417;52.482;13.432;2023-08-21T11:27:11;4.73;;;2.37;;
4806;SDS011;2417;52.482;13.432;2023-08-21T11:29:42;8.17;;;2.70;;
4806;SDS011;2417;52.482;13.432;2023-08-21T11:32:12;7.47;;;2.20;;
4806;SDS011;2417;52.482;13.432;2023-08-21T11:34:40;3.60;;;1.60;;
4806;SDS011;2417;52.482;13.432;2023-08-21T11:37:29;8.43;;;1.90;;
4806;SDS011;2417;52.482;13.432;2023-08-21T11:39:57;5.73;;;2.57;;
4806;SDS011;2417;52.482;13.432;2023-08-21T11:42:28;6.13;;;1.93;;
4806;SDS011;2417;52.482;13.432;2023-08-21T11:44:58;5.87;;;1.57;;
4806;SDS011;2417;52.482;13.432;2023-08-21T11:47:29;4.90;;;2.37;;
4806;SDS011;2417;52.482;13.432;2023-08-21T11:50:01;5.67;;;2.60;;
4806;SDS011;2417;52.482;13.432;2023-08-21T11:52:29;3.30;;;1.63;;
4806;SDS011;2417;52.482;13.432;2023-08-21T11:54:58;3.10;;;1.37;;
4806;SDS011;2417;52.482;13.432;2023-08-21T11:57:28;4.97;;;2.37;;
4806;SDS011;2417;52.482;13.432;2023-08-21T11:59:58;4.10;;;1.20;;
4806;SDS011;2417;52.482;13.432;2023-08-21T12:02:27;3.43;;;1.30;;
4806;SDS011;2417;52.482;13.432;2023-08-21T12:05:00;3.07;;;1.50;;
4806;SDS011;2417;52.482;13.432;2023-08-21T12:07:29;5.43;;;1.67;;
4806;SDS011;2417;52.482;13.432;2023-08-21T12:09:57;8.93;;;1.47;;
4806;SDS011;2417;52.482;13.432;2023-08-21T12:12:24;5.30;;;1.40;;
4806;SDS011;2417;52.482;13.432;2023-08-21T12:14:52;4.00;;;1.63;;
4806;SDS011;2417;52.482;13.432;2023-08-21T12:17:22;5.87;;;1.70;;
4806;SDS011;2417;52.482;13.432;2023-08-21T12:19:50;5.93;;;1.70;;
4806;SDS011;2417;52.482;13.432;2023-08-21T12:22:19;3.37;;;1.77;;
4806;SDS011;2417;52.482;13.432;2023-08-21T12:24:46;6.67;;;1.73;;
4806;SDS011;2417;52.482;13.432;2023-08-21T12:27:14;5.67;;;2.87;;
4806;SDS011;2417;52.482;13.432;2023-08-21T12:29:42;4.63;;;1.73;;
4806;SDS011;2417;52.482;13.432;2023-08-21T12:32:15;4.37;;;1.90;;
4806;SDS011;2417;52.482;13.432;2023-08-21T12:34:45;4.07;;;1.63;;
4806;SDS011;2417;52.482;13.432;2023-08-21T12:37:13;3.33;;;1.90;;
4806;SDS011;2417;52.482;13.432;2023-08-21T12:39:43;8.57;;;2.10;;
4806;SDS011;2417;52.482;13.432;2023-08-21T12:42:11;5.87;;;2.00;;
4806;SDS011;2417;52.482;13.432;2023-08-21T12:44:39;5.90;;;2.50;;
4806;SDS011;2417;52.482;13.432;2023-08-21T12:47:07;7.13;;;2.30;;
4806;SDS011;2417;52.482;13.432;2023-08-21T12:49:35;5.13;;;2.20;;
4806;SDS011;2417;52.482;13.432;2023-08-21T12:52:04;11.33;;;2.70;;
4806;SDS011;2417;52.482;13.432;2023-08-21T12:54:36;5.00;;;1.60;;
4806;SDS011;2417;52.482;13.432;2023-08-21T12:57:04;5.37;;;2.30;;
4806;SDS011;2417;52.482;13.432;2023-08-21T12:59:32;5.43;;;2.00;;
4806;SDS011;2417;52.482;13.432;2023-08-21T13:02:00;5.73;;;2.20;;
4806;SDS011;2417;52.482;13.432;2023-08-21T13:04:29;3.17;;;1.43;;
4806;SDS011;2417;52.482;13.432;2023-08-21T13:06:57;4.33;;;1.60;;
4806;SDS011;2417;52.482;13.432;2023-08-21T13:09:26;4.33;;;1.90;;
4806;SDS011;2417;52.482;13.432;2023-08-21T13:11:54;6.23;;;1.83;;
4806;SDS011;2417;52.482;13.432;2023-08-21T13:14:22;6.70;;;1.70;;
4806;SDS011;2417;52.482;13.432;2023-08-21T13:16:50;5.10;;;1.83;;
4806;SDS011;2417;52.482;13.432;2023-08-21T13:19:18;4.27;;;2.30;;
4806;SDS011;2417;52.482;13.432;2023-08-21T13:21:46;3.63;;;1.60;;
4806;SDS011;2417;52.482;13.432;2023-08-21T13:24:14;3.20;;;1.30;;
4806;SDS011;2417;52.482;13.432;2023-08-21T13:26:43;6.00;;;1.27;;
4806;SDS011;2417;52.482;13.432;2023-08-21T13:29:11;4.60;;;1.50;;
4806;SDS011;2417;52.482;13.432;2023-08-21T13:31:39;3.60;;;1.30;;
4806;SDS011;2417;52.482;13.432;2023-08-21T13:34:07;2.73;;;1.20;;
4806;SDS011;2417;52.482;13.432;2023-08-21T13:36:35;8.47;;;1.30;;
4806;SDS011;2417;52.482;13.432;2023-08-21T13:39:03;3.93;;;1.20;;
4806;SDS011;2417;52.482;13.432;2023-08-21T13:41:32;2.83;;;1.33;;
4806;SDS011;2417;52.482;13.432;2023-08-21T13:44:02;3.30;;;1.23;;
4806;SDS011;2417;52.482;13.432;2023-08-21T13:46:30;6.03;;;2.03;;
4806;SDS011;2417;52.482;13.432;2023-08-21T13:48:58;6.73;;;1.57;;
4806;SDS011;2417;52.482;13.432;2023-08-21T13:51:25;8.53;;;2.70;;
4806;SDS011;2417;52.482;13.432;2023-08-21T13:53:54;7.03;;;2.23;;
4806;SDS011;2417;52.482;13.432;2023-08-21T13:56:21;2.10;;;1.20;;
4806;SDS011;2417;52.482;13.432;2023-08-21T13:58:50;4.10;;;1.20;;
4806;SDS011;2417;52.482;13.432;2023-08-21T14:01:19;5.87;;;1.50;;
4806;SDS011;2417;52.482;13.432;2023-08-21T14:03:48;2.93;;;1.20;;
4806;SDS011;2417;52.482;13.432;2023-08-21T14:06:16;3.87;;;0.90;;
4806;SDS011;2417;52.482;13.432;2023-08-21T14:08:44;4.73;;;1.00;;
4806;SDS011;2417;52.482;13.432;2023-08-21T14:11:12;7.90;;;0.80;;
4806;SDS011;2417;52.482;13.432;2023-08-21T14:13:40;6.20;;;1.37;;
4806;SDS011;2417;52.482;13.432;2023-08-21T14:16:08;3.77;;;1.30;;
4806;SDS011;2417;52.482;13.432;2023-08-21T14:18:38;2.57;;;1.10;;
4806;SDS011;2417;52.482;13.432;2023-08-21T14:21:05;5.67;;;1.10;;
4806;SDS011;2417;52.482;13.432;2023-08-21T14:23:33;5.30;;;1.40;;
4806;SDS011;2417;52.482;13.432;2023-08-21T14:26:05;5.10;;;2.50;;
4806;SDS011;2417;52.482;13.432;2023-08-21T14:28:32;7.40;;;4.40;;
4806;SDS011;2417;52.482;13.432;2023-08-21T14:31:00;5.00;;;2.47;;
4806;SDS011;2417;52.482;13.432;2023-08-21T14:33:29;4.27;;;2.27;;
4806;SDS011;2417;52.482;13.432;2023-08-21T14:35:58;4.77;;;2.43;;
4806;SDS011;2417;52.482;13.432;2023-08-21T14:38:26;3.30;;;1.40;;
4806;SDS011;2417;52.482;13.432;2023-08-21T14:40:54;3.10;;;1.10;;
4806;SDS011;2417;52.482;13.432;2023-08-21T14:43:22;4.43;;;1.30;;
4806;SDS011;2417;52.482;13.432;2023-08-21T14:45:50;6.63;;;1.43;;
4806;SDS011;2417;52.482;13.432;2023-08-21T14:48:18;3.63;;;1.23;;
4806;SDS011;2417;52.482;13.432;2023-08-21T14:50:46;4.20;;;1.30;;
4806;SDS011;2417;52.482;13.432;2023-08-21T14:53:15;4.60;;;1.20;;
4806;SDS011;2417;52.482;13.432;2023-08-21T14:55:43;4.47;;;1.27;;
4806;SDS011;2417;52.482;13.432;2023-08-21T14:58:11;7.70;;;1.80;;
4806;SDS011;2417;52.482;13.432;2023-08-21T15:00:39;7.00;;;1.20;;
4806;SDS011;2417;52.482;13.432;2023-08-21T15:03:07;3.50;;;1.10;;